Time;durP1;ratioP1;P1;durP2;ratioP2;P2;SDS_P1;SDS_P2;PMS_P1;PMS_P2;Temp;Humidity;BMP_temperature;BMP_pressure;BME280_temperature;BME280_humidity;BME280_pressure;Samples;Min_cycle;Max_cycle;Signal;HPM_P1;HPM_P2
2022/07/14 00:01:57;;;;;;;;;;;;;;;23.62;41.90;102268.41;6175605;23;20243;-81
2022/07/14 00:04:22;;;;;;;;;;;;;;;23.61;42.12;102261.44;6199818;23;19912;-81
2022/07/14 00:06:47;;;;;;;;;;;;;;;23.58;42.02;102264.97;6199580;23;19912;-81
2022/07/14 00:09:13;;;;;;;;;;;;;;;23.59;41.93;102260.56;6225187;23;19908;-81
2022/07/14 00:11:38;;;;;;;;;;;;;;;23.58;42.00;102256.19;6199391;23;19912;-81
2022/07/14 00:14:06;;;;;;;;;;;;;;;23.57;42.25;102250.06;6198567;23;19939;-81
2022/07/14 00:16:31;;;;;;;;;;;;;;;23.57;42.03;102243.94;6197337;23;19959;-81
2022/07/14 00:18:58;;;;;;;;;;;;;;;23.55;42.02;102254.47;6196033;23;19916;-81
2022/07/14 00:21:23;;;;;;;;;;;;;;;23.55;42.33;102256.25;6196663;23;19919;-81
2022/07/14 00:23:48;;;;;;;;;;;;;;;23.55;42.18;102256.25;6170780;23;19911;-81
2022/07/14 00:26:13;;;;;;;;;;;;;;;23.55;42.16;102253.63;6194568;23;19923;-81
2022/07/14 00:28:39;;;;;;;;;;;;;;;23.53;41.94;102258.88;6169388;23;19912;-81
2022/07/14 00:31:09;;;;;;;;;;;;;;;23.56;42.30;102257.97;6169041;23;20321;-80
2022/07/14 00:33:35;;;;;;;;;;;;;;;23.55;42.19;102253.63;6193091;23;19923;-81
2022/07/14 00:36:01;;;;;;;;;;;;;;;23.56;41.88;102257.97;6193853;23;19916;-81
2022/07/14 00:38:26;;;;;;;;;;;;;;;23.53;42.32;102258.88;6193329;23;19912;-81
2022/07/14 00:40:51;;;;;;;;;;;;;;;23.53;42.27;102258.88;6219922;23;20308;-81
2022/07/14 00:43:17;;;;;;;;;;;;;;;23.50;42.38;102258.94;6193062;23;20035;-81
2022/07/14 00:45:43;;;;;;;;;;;;;;;23.49;42.08;102251.91;6194784;23;19912;-81
2022/07/14 00:48:08;;;;;;;;;;;;;;;23.50;42.17;102255.44;6195285;23;19936;-81
2022/07/14 00:50:33;;;;;;;;;;;;;;;23.49;42.18;102256.31;6170787;23;19915;-80
2022/07/14 00:53:05;;;;;;;;;;;;;;;23.49;42.26;102245.81;6222098;23;19912;-81
2022/07/14 00:55:30;;;;;;;;;;;;;;;23.48;42.19;102250.19;6195442;23;20437;-80
2022/07/14 00:57:56;;;;;;;;;;;;;;;23.48;42.13;102252.81;6195149;23;19904;-81
2022/07/14 01:00:22;;;;;;;;;;;;;;;23.45;42.24;102250.22;6195834;23;20073;-81
2022/07/14 01:02:48;;;;;;;;;;;;;;;23.46;41.91;102243.22;6195556;23;19908;-80
2022/07/14 01:05:13;;;;;;;;;;;;;;;23.46;42.06;102245.84;6195140;23;20346;-80
2022/07/14 01:07:38;;;;;;;;;;;;;;;23.44;42.18;102239.75;6169782;23;19912;-80
2022/07/14 01:10:04;;;;;;;;;;;;;;;23.44;42.25;102239.75;6194867;23;20272;-80
2022/07/14 01:12:29;;;;;;;;;;;;;;;23.42;42.26;102231.88;6194469;23;19998;-80
2022/07/14 01:14:55;;;;;;;;;;;;;;;23.42;42.30;102226.63;6194045;23;19907;-80
2022/07/14 01:17:20;;;;;;;;;;;;;;;23.42;42.29;102230.09;6194378;23;19962;-80
2022/07/14 01:19:48;;;;;;;;;;;;;;;23.42;42.35;102235.34;6168825;23;20338;-79
2022/07/14 01:22:13;;;;;;;;;;;;;;;23.41;42.39;102233.63;6221201;23;20328;-79
2022/07/14 01:24:39;;;;;;;;;;;;;;;23.41;42.36;102231.00;6194040;23;19908;-80
2022/07/14 01:27:04;;;;;;;;;;;;;;;23.41;42.27;102238.03;6194116;23;19958;-79
2022/07/14 01:29:30;;;;;;;;;;;;;;;23.40;42.45;102231.00;6194174;23;20261;-79
2022/07/14 01:31:55;;;;;;;;;;;;;;;23.40;42.40;102231.00;6194898;23;19907;-80
2022/07/14 01:34:20;;;;;;;;;;;;;;;23.39;42.37;102231.91;6168814;23;19927;-80
2022/07/14 01:36:49;;;;;;;;;;;;;;;23.38;42.08;102233.66;6193699;23;20313;-80
2022/07/14 01:39:14;;;;;;;;;;;;;;;23.39;42.37;102234.53;6169473;23;19912;-80
2022/07/14 01:41:40;;;;;;;;;;;;;;;23.37;42.53;102221.41;6193157;23;19915;-80
2022/07/14 01:44:05;;;;;;;;;;;;;;;23.37;42.43;102223.19;6192172;23;19908;-80
2022/07/14 01:46:30;;;;;;;;;;;;;;;23.37;42.48;102224.03;6167684;23;19912;-80
2022/07/14 01:48:55;;;;;;;;;;;;;;;23.38;42.49;102231.03;6166997;23;19912;-80
2022/07/14 01:51:21;;;;;;;;;;;;;;;23.38;42.16;102233.66;6192387;23;19907;-80
2022/07/14 01:53:46;;;;;;;;;;;;;;;23.37;42.08;102231.06;6168581;23;19923;-80
2022/07/14 01:56:12;;;;;;;;;;;;;;;23.36;42.46;102245.06;6205982;23;19915;-81
2022/07/14 01:58:38;;;;;;;;;;;;;;;23.36;42.26;102234.56;6212447;23;19914;-80
2022/07/14 02:03:52;;;;;;;;;;;;;;;23.35;42.18;102241.59;6238023;23;19915;-80
2022/07/14 02:06:18;;;;;;;;;;;;;;;23.33;42.50;102239.88;6199820;23;19935;-80
2022/07/14 02:08:43;;;;;;;;;;;;;;;23.33;42.42;102234.63;6173865;23;19916;-79
2022/07/14 02:13:52;;;;;;;;;;;;;;;23.29;42.62;102238.16;6225566;23;19977;-80
2022/07/14 02:16:17;;;;;;;;;;;;;;;23.28;42.69;102237.28;6204325;23;19915;-79
2022/07/14 02:18:43;;;;;;;;;;;;;;;23.29;42.51;102232.91;6181999;23;19927;-80
2022/07/14 02:21:08;;;;;;;;;;;;;;;23.29;42.52;102239.03;6207607;23;19908;-80
2022/07/14 02:23:33;;;;;;;;;;;;;;;23.29;42.31;102235.53;6211359;23;19912;-81
2022/07/14 02:25:59;;;;;;;;;;;;;;;23.28;42.53;102234.66;6186449;23;19912;-79
2022/07/14 02:28:25;;;;;;;;;;;;;;;23.26;42.58;102231.19;6233344;23;19911;-80
2022/07/14 02:30:50;;;;;;;;;;;;;;;23.27;42.48;102234.69;6179073;23;19911;-79
2022/07/14 02:33:16;;;;;;;;;;;;;;;23.25;42.58;102241.69;6229391;23;19964;-80
2022/07/14 02:35:41;;;;;;;;;;;;;;;23.25;42.49;102237.31;6203055;23;19908;-80
2022/07/14 02:38:07;;;;;;;;;;;;;;;23.26;42.21;102243.47;6177289;23;19986;-80
2022/07/14 02:40:32;;;;;;;;;;;;;;;23.24;42.32;102235.59;6200601;23;19947;-80
2022/07/14 02:42:57;;;;;;;;;;;;;;;23.24;42.35;102237.34;6175288;23;19964;-80
2022/07/14 02:45:23;;;;;;;;;;;;;;;23.24;42.54;102235.59;6199898;23;19950;-80
2022/07/14 02:47:49;;;;;;;;;;;;;;;23.24;42.40;102235.59;6199735;23;20324;-80
2022/07/14 02:50:15;;;;;;;;;;;;;;;23.23;42.26;102231.22;6199224;23;19923;-80
2022/07/14 02:52:40;;;;;;;;;;;;;;;23.22;42.29;102232.09;6199292;23;20235;-80
2022/07/14 02:55:06;;;;;;;;;;;;;;;23.22;42.49;102237.34;6198779;23;19908;-79
2022/07/14 02:57:31;;;;;;;;;;;;;;;23.22;42.23;102236.50;6194967;23;19915;-79
2022/07/14 02:59:56;;;;;;;;;;;;;;;23.22;42.47;102233.88;6195680;23;19915;-79
2022/07/14 03:02:22;;;;;;;;;;;;;;;23.19;42.53;102229.50;6196152;23;19931;-80
2022/07/14 03:04:47;;;;;;;;;;;;;;;23.19;42.44;102234.75;6171490;23;19967;-80
2022/07/14 03:07:13;;;;;;;;;;;;;;;23.18;42.24;102240.91;6198888;23;19952;-80
2022/07/14 03:09:38;;;;;;;;;;;;;;;23.18;42.47;102235.66;6197866;23;20316;-80
2022/07/14 03:12:03;;;;;;;;;;;;;;;23.17;42.40;102237.41;6196127;23;19940;-80
2022/07/14 03:14:29;;;;;;;;;;;;;;;23.17;42.54;102236.56;6195683;23;19908;-80
2022/07/14 03:16:54;;;;;;;;;;;;;;;23.18;42.45;102225.16;6195834;23;19934;-80
2022/07/14 03:19:20;;;;;;;;;;;;;;;23.17;42.31;102240.03;6222460;23;19977;-80
2022/07/14 03:21:45;;;;;;;;;;;;;;;23.16;42.45;102227.78;6198406;23;19911;-80
2022/07/14 03:24:10;;;;;;;;;;;;;;;23.16;42.26;102232.16;6199179;23;19907;-80
2022/07/14 03:26:35;;;;;;;;;;;;;;;23.14;42.09;102231.31;6172481;23;19911;-80
2022/07/14 03:29:01;;;;;;;;;;;;;;;23.14;42.37;102233.94;6196415;23;19990;-80
2022/07/14 03:31:26;;;;;;;;;;;;;;;23.12;42.53;102235.72;6195843;23;19912;-80
2022/07/14 03:33:52;;;;;;;;;;;;;;;23.12;42.13;102230.47;6244551;23;19935;-80
2022/07/14 03:36:18;;;;;;;;;;;;;;;23.09;42.51;102226.13;6202470;23;19912;-80
2022/07/14 03:38:45;;;;;;;;;;;;;;;23.13;42.26;102232.22;6252582;23;19927;-79
2022/07/14 03:41:11;;;;;;;;;;;;;;;23.10;42.19;102232.22;6201469;23;19915;-80
2022/07/14 03:43:37;;;;;;;;;;;;;;;23.12;42.11;102227.84;6226402;23;19915;-81
2022/07/14 03:46:02;;;;;;;;;;;;;;;23.10;42.00;102227.84;6251687;23;19982;-81
2022/07/14 03:48:28;;;;;;;;;;;;;;;23.10;42.16;102216.47;6225949;23;19908;-81
2022/07/14 03:50:53;;;;;;;;;;;;;;;23.11;42.42;102223.47;6226359;23;19908;-81
2022/07/14 03:53:18;;;;;;;;;;;;;;;23.09;42.26;102222.63;6225196;23;19911;-81
2022/07/14 03:55:43;;;;;;;;;;;;;;;23.11;42.20;102215.59;6225376;23;19908;-81
2022/07/14 03:58:09;;;;;;;;;;;;;;;23.10;42.16;102214.72;6227734;23;19927;-81
2022/07/14 04:00:35;;;;;;;;;;;;;;;23.12;42.08;102214.72;6231797;23;19911;-81
2022/07/14 04:03:01;;;;;;;;;;;;;;;23.10;42.33;102212.09;6228450;23;19991;-81
2022/07/14 04:05:27;;;;;;;;;;;;;;;23.11;42.18;102197.22;6255321;23;19915;-81
2022/07/14 04:07:52;;;;;;;;;;;;;;;23.11;42.07;102197.22;6219669;23;19951;-81
2022/07/14 04:10:18;;;;;;;;;;;;;;;23.11;42.18;102195.47;6213831;23;19912;-81
